Time;durP1;ratioP1;P1;durP2;ratioP2;P2;SDS_P1;SDS_P2;PMS_P1;PMS_P2;Temp;Humidity;BMP_temperature;BMP_pressure;BME280_temperature;BME280_humidity;BME280_pressure;Samples;Min_cycle;Max_cycle;Signal;HPM_P1;HPM_P2
2022/11/04 00:02:18;;;;;;;17.10;6.25;;;;;;;;;;10262364;23;20016;-89
2022/11/04 00:06:21;;;;;;;21.10;8.82;;;;;;;;;;10285843;23;20016;-84
2022/11/04 00:12:23;;;;;;;15.93;7.10;;;;;;;;;;10287299;23;20338;-84
2022/11/04 00:14:52;;;;;;;15.88;7.88;;;;;;;;;;10304024;23;20020;-84
2022/11/04 00:18:59;;;;;;;15.70;7.65;;;;;;;;;;10285832;23;20024;-85
2022/11/04 00:35:55;;;;;;;18.58;6.75;;;;;;;;;;10382302;22;20474;-87
2022/11/04 00:39:57;;;;;;;19.42;8.05;;;;;;;;;;10405053;22;20103;-87
2022/11/04 00:44:02;;;;;;;15.00;7.35;;;;;;;;;;10388147;22;20015;-86
2022/11/04 00:48:04;;;;;;;18.60;8.77;;;;;;;;;;10387324;22;20050;-86
2022/11/04 00:52:08;;;;;;;16.58;6.55;;;;;;;;;;10387876;22;20016;-85
2022/11/04 00:56:11;;;;;;;17.17;8.48;;;;;;;;;;10388227;22;20455;-87
2022/11/04 01:00:15;;;;;;;25.77;9.15;;;;;;;;;;10389570;22;20077;-85
2022/11/04 01:04:17;;;;;;;19.08;7.93;;;;;;;;;;10389285;22;20022;-87
2022/11/04 01:08:21;;;;;;;14.00;7.68;;;;;;;;;;10391119;22;20042;-87
2022/11/04 01:12:23;;;;;;;19.77;8.30;;;;;;;;;;10391095;22;20447;-87
2022/11/04 01:16:27;;;;;;;20.77;9.45;;;;;;;;;;10390913;22;20328;-86
2022/11/04 01:20:30;;;;;;;17.13;8.70;;;;;;;;;;10389965;22;20467;-85
2022/11/04 01:24:34;;;;;;;19.38;9.18;;;;;;;;;;10391237;22;20458;-85
2022/11/04 01:28:36;;;;;;;20.45;8.93;;;;;;;;;;10390985;22;20016;-88
2022/11/04 01:32:39;;;;;;;22.55;9.95;;;;;;;;;;10390844;22;20431;-85
2022/11/04 01:36:41;;;;;;;16.42;7.47;;;;;;;;;;10390814;22;20046;-86
2022/11/04 01:40:45;;;;;;;17.38;9.45;;;;;;;;;;10390597;22;20069;-85
2022/11/04 01:44:53;;;;;;;21.52;9.45;;;;;;;;;;10390745;22;20094;-87
2022/11/04 01:49:00;;;;;;;17.25;8.02;;;;;;;;;;10407557;22;20458;-88
2022/11/04 01:53:06;;;;;;;24.15;10.07;;;;;;;;;;10407284;22;20019;-86
2022/11/04 01:57:17;;;;;;;23.40;9.80;;;;;;;;;;10407494;22;20020;-85
2022/11/04 02:01:20;;;;;;;18.42;8.43;;;;;;;;;;10407246;22;20019;-87
2022/11/04 02:05:22;;;;;;;19.33;9.55;;;;;;;;;;10389892;22;20114;-86
2022/11/04 02:09:27;;;;;;;20.58;9.48;;;;;;;;;;10389868;22;20098;-88
2022/11/04 02:13:33;;;;;;;21.48;10.52;;;;;;;;;;10407044;22;20015;-86
2022/11/04 02:18:13;;;;;;;18.27;8.18;;;;;;;;;;10390548;22;20455;-86
2022/11/04 02:23:00;;;;;;;19.88;10.00;;;;;;;;;;10390118;22;20015;-87
2022/11/04 02:27:30;;;;;;;22.30;10.65;;;;;;;;;;10367009;22;20058;-86
2022/11/04 02:31:45;;;;;;;28.13;9.70;;;;;;;;;;10386523;22;20355;-85
2022/11/04 02:35:55;;;;;;;24.55;10.63;;;;;;;;;;10405916;22;20016;-86
2022/11/04 02:40:12;;;;;;;20.52;10.88;;;;;;;;;;10406529;22;20643;-85
2022/11/04 02:44:21;;;;;;;23.25;10.75;;;;;;;;;;10406540;22;20016;-85
2022/11/04 02:48:35;;;;;;;22.40;11.02;;;;;;;;;;10406496;22;20012;-86
2022/11/04 02:52:43;;;;;;;22.30;11.40;;;;;;;;;;10389406;22;20095;-85
2022/11/04 02:56:48;;;;;;;21.98;11.00;;;;;;;;;;10389939;22;20351;-85
2022/11/04 03:00:52;;;;;;;21.20;10.15;;;;;;;;;;10389394;22;20076;-86
2022/11/04 03:04:58;;;;;;;21.52;10.65;;;;;;;;;;10389228;22;20019;-85
2022/11/04 03:09:02;;;;;;;20.95;10.32;;;;;;;;;;10405832;22;20515;-88
2022/11/04 03:13:11;;;;;;;20.58;11.10;;;;;;;;;;10389081;22;20020;-89
2022/11/04 03:17:19;;;;;;;22.40;12.30;;;;;;;;;;10389810;22;20023;-85
2022/11/04 03:21:26;;;;;;;23.52;10.15;;;;;;;;;;10405480;22;20019;-87
2022/11/04 03:25:34;;;;;;;16.05;6.78;;;;;;;;;;10406128;22;20046;-89
2022/11/04 03:29:44;;;;;;;22.30;11.57;;;;;;;;;;10396632;22;20428;-86
2022/11/04 03:33:50;;;;;;;27.75;15.82;;;;;;;;;;10388793;22;20472;-86
2022/11/04 03:37:54;;;;;;;32.35;19.20;;;;;;;;;;10404662;22;20027;-85
2022/11/04 03:41:58;;;;;;;24.58;11.63;;;;;;;;;;10387402;22;20012;-85
2022/11/04 03:46:01;;;;;;;31.27;15.02;;;;;;;;;;10388078;22;20019;-89
2022/11/04 03:50:10;;;;;;;42.58;23.27;;;;;;;;;;10388246;22;20043;-85
2022/11/04 03:54:15;;;;;;;28.70;14.20;;;;;;;;;;10404506;22;20024;-84
2022/11/04 03:58:28;;;;;;;22.92;12.60;;;;;;;;;;10387639;22;20026;-87
2022/11/04 04:02:41;;;;;;;27.63;12.35;;;;;;;;;;10387600;22;20024;-89
2022/11/04 04:06:45;;;;;;;24.55;11.25;;;;;;;;;;10386689;22;20019;-89
2022/11/04 04:10:59;;;;;;;27.98;12.95;;;;;;;;;;10387264;22;20022;-85
2022/11/04 04:15:08;;;;;;;23.63;11.40;;;;;;;;;;10388950;22;20467;-86
2022/11/04 04:19:14;;;;;;;24.95;12.15;;;;;;;;;;10404999;22;20028;-84
2022/11/04 04:27:42;;;;;;;29.02;19.08;;;;;;;;;;10404464;22;20015;-85
2022/11/04 04:31:51;;;;;;;26.60;13.95;;;;;;;;;;10388119;22;20090;-89
2022/11/04 04:35:57;;;;;;;18.20;8.25;;;;;;;;;;10405055;22;20027;-85
2022/11/04 04:48:44;;;;;;;28.55;16.70;;;;;;;;;;10386941;22;20019;-85
2022/11/04 04:52:49;;;;;;;22.48;13.88;;;;;;;;;;10388147;22;20344;-84
2022/11/04 04:56:51;;;;;;;30.45;22.00;;;;;;;;;;10387776;22;20024;-85
2022/11/04 05:00:55;;;;;;;25.90;13.40;;;;;;;;;;10387725;22;20031;-85
2022/11/04 05:04:58;;;;;;;23.95;12.57;;;;;;;;;;10388395;22;20023;-87
2022/11/04 05:09:00;;;;;;;26.00;16.35;;;;;;;;;;10387823;22;20058;-84
2022/11/04 05:17:24;;;;;;;25.50;11.18;;;;;;;;;;10404996;22;20023;-87
2022/11/04 05:21:26;;;;;;;20.50;10.52;;;;;;;;;;10387734;22;20452;-85
2022/11/04 05:25:29;;;;;;;24.00;12.43;;;;;;;;;;10387803;22;20024;-85
2022/11/04 05:29:31;;;;;;;35.83;21.08;;;;;;;;;;10387442;22;20040;-89
2022/11/04 05:33:35;;;;;;;29.48;15.90;;;;;;;;;;10387475;22;20026;-84
2022/11/04 05:37:37;;;;;;;20.52;9.50;;;;;;;;;;10387493;22;20467;-84
2022/11/04 05:41:40;;;;;;;21.13;11.15;;;;;;;;;;10387247;22;20493;-86
2022/11/04 05:45:42;;;;;;;31.40;14.95;;;;;;;;;;10388810;22;20016;-85
2022/11/04 05:49:46;;;;;;;46.03;40.55;;;;;;;;;;10390627;22;20041;-84
2022/11/04 05:53:49;;;;;;;38.38;21.35;;;;;;;;;;10390087;22;20016;-88
2022/11/04 05:57:51;;;;;;;29.50;13.48;;;;;;;;;;10390690;22;20020;-87
2022/11/04 06:01:53;;;;;;;25.27;12.57;;;;;;;;;;10389991;22;20448;-85
2022/11/04 06:05:57;;;;;;;30.33;15.38;;;;;;;;;;10390344;22;20077;-87
2022/11/04 06:10:00;;;;;;;41.42;16.30;;;;;;;;;;10390264;22;20019;-84
2022/11/04 06:14:03;;;;;;;30.30;12.55;;;;;;;;;;10390306;22;20023;-88
2022/11/04 06:18:05;;;;;;;27.83;13.02;;;;;;;;;;10389804;22;20027;-87
2022/11/04 06:22:10;;;;;;;36.83;19.08;;;;;;;;;;10390121;22;20042;-87
2022/11/04 06:26:13;;;;;;;27.75;14.40;;;;;;;;;;10389758;22;20042;-85
2022/11/04 06:30:16;;;;;;;32.13;14.40;;;;;;;;;;10389776;22;20015;-85
2022/11/04 06:34:18;;;;;;;32.75;14.68;;;;;;;;;;10389738;22;20086;-89
2022/11/04 06:38:22;;;;;;;21.35;11.23;;;;;;;;;;10389934;22;20016;-85
2022/11/04 06:42:27;;;;;;;28.92;12.77;;;;;;;;;;10389664;22;20023;-89
2022/11/04 06:46:34;;;;;;;22.73;12.52;;;;;;;;;;10389663;22;20020;-89
2022/11/04 06:50:36;;;;;;;27.30;16.33;;;;;;;;;;10405374;22;20043;-86
2022/11/04 06:54:40;;;;;;;21.42;10.93;;;;;;;;;;10387150;22;20023;-88
2022/11/04 06:58:43;;;;;;;22.05;11.90;;;;;;;;;;10388054;22;20023;-85
2022/11/04 07:02:45;;;;;;;24.73;12.38;;;;;;;;;;10388591;22;20440;-85
2022/11/04 07:06:48;;;;;;;31.55;16.52;;;;;;;;;;10388320;22;20043;-88
2022/11/04 07:10:55;;;;;;;22.23;10.52;;;;;;;;;;10389747;22;20462;-86
2022/11/04 07:14:57;;;;;;;25.73;12.52;;;;;;;;;;10406604;22;20336;-90
2022/11/04 07:19:00;;;;;;;23.80;12.35;;;;;;;;;;10389502;22;20086;-90
2022/11/04 07:23:02;;;;;;;22.58;11.98;;;;;;;;;;10389341;22;20022;-84
2022/11/04 07:27:07;;;;;;;19.60;10.77;;;;;;;;;;10389182;22;20042;-91
2022/11/04 07:31:12;;;;;;;17.90;9.52;;;;;;;;;;10389358;22;20065;-90
2022/11/04 07:35:15;;;;;;;20.38;11.70;;;;;;;;;;10406166;22;20023;-91
2022/11/04 07:39:17;;;;;;;23.45;12.63;;;;;;;;;;10389469;22;20011;-89
2022/11/04 07:43:22;;;;;;;34.00;22.30;;;;;;;;;;10387082;22;20023;-88
2022/11/04 07:47:24;;;;;;;21.38;11.68;;;;;;;;;;10383352;22;20427;-87
2022/11/04 07:51:27;;;;;;;17.98;11.48;;;;;;;;;;10383025;22;20020;-89
2022/11/04 07:55:30;;;;;;;16.63;9.95;;;;;;;;;;10382482;22;20041;-87
2022/11/04 07:59:34;;;;;;;17.05;9.85;;;;;;;;;;10382162;22;20016;-87
2022/11/04 08:03:39;;;;;;;16.33;8.98;;;;;;;;;;10382906;22;20024;-87
2022/11/04 08:07:42;;;;;;;16.83;9.57;;;;;;;;;;10399525;22;20066;-86
2022/11/04 08:11:47;;;;;;;19.30;12.60;;;;;;;;;;10382874;22;20094;-86
2022/11/04 08:15:52;;;;;;;21.50;17.98;;;;;;;;;;10382461;22;20094;-87
2022/11/04 08:19:55;;;;;;;17.33;8.48;;;;;;;;;;10382494;22;20094;-86
2022/11/04 08:23:58;;;;;;;14.90;8.77;;;;;;;;;;10382559;22;20101;-85
2022/11/04 08:28:00;;;;;;;15.93;8.63;;;;;;;;;;10381888;22;20448;-88
2022/11/04 08:32:05;;;;;;;9.85;6.05;;;;;;;;;;10399487;22;20018;-86
2022/11/04 08:36:09;;;;;;;17.45;8.98;;;;;;;;;;10382719;22;20015;-87
2022/11/04 08:40:12;;;;;;;16.95;9.52;;;;;;;;;;10382387;22;20023;-88
2022/11/04 08:44:17;;;;;;;13.48;6.57;;;;;;;;;;10381399;22;20020;-87
2022/11/04 08:48:21;;;;;;;16.52;8.82;;;;;;;;;;10381986;22;20024;-87
2022/11/04 08:52:24;;;;;;;15.73;10.15;;;;;;;;;;10382835;22;20305;-85
2022/11/04 08:56:31;;;;;;;11.88;7.05;;;;;;;;;;10382095;22;20020;-87
2022/11/04 09:00:36;;;;;;;21.77;16.05;;;;;;;;;;10382534;22;20026;-87
2022/11/04 09:04:42;;;;;;;15.57;8.68;;;;;;;;;;10382047;22;20026;-88
2022/11/04 09:08:44;;;;;;;15.20;9.75;;;;;;;;;;10399373;22;20078;-89
2022/11/04 09:12:48;;;;;;;20.10;11.23;;;;;;;;;;10382320;22;20020;-85
2022/11/04 09:16:52;;;;;;;17.45;8.02;;;;;;;;;;10382111;22;20389;-88
2022/11/04 09:21:01;;;;;;;15.35;7.78;;;;;;;;;;10401051;22;20072;-90
2022/11/04 09:25:08;;;;;;;16.17;9.88;;;;;;;;;;10385252;22;20019;-85
2022/11/04 09:29:12;;;;;;;11.15;6.68;;;;;;;;;;10394599;22;20015;-87
2022/11/04 09:33:15;;;;;;;13.48;6.85;;;;;;;;;;10384994;22;20026;-85
2022/11/04 09:37:20;;;;;;;12.38;6.80;;;;;;;;;;10385916;22;20016;-87
2022/11/04 09:41:48;;;;;;;16.40;12.30;;;;;;;;;;10384772;22;20038;-86
2022/11/04 09:45:51;;;;;;;15.35;7.68;;;;;;;;;;10382301;22;20026;-90
2022/11/04 09:49:58;;;;;;;31.60;18.33;;;;;;;;;;10385875;22;20465;-88
2022/11/04 09:54:11;;;;;;;13.50;7.50;;;;;;;;;;10401983;22;20381;-85
2022/11/04 09:58:14;;;;;;;15.10;6.95;;;;;;;;;;10384960;22;20019;-89
2022/11/04 10:02:41;;;;;;;12.60;7.45;;;;;;;;;;10385314;22;20436;-86
2022/11/04 10:06:56;;;;;;;27.23;15.30;;;;;;;;;;10384176;22;20022;-89
2022/11/04 10:11:05;;;;;;;21.20;11.25;;;;;;;;;;10401201;22;20023;-85
2022/11/04 10:15:39;;;;;;;12.82;6.55;;;;;;;;;;10401942;22;20019;-87
2022/11/04 10:19:58;;;;;;;20.63;9.07;;;;;;;;;;10401364;22;20035;-86
2022/11/04 10:24:25;;;;;;;20.75;12.45;;;;;;;;;;10383998;22;20093;-85
2022/11/04 10:28:34;;;;;;;23.50;9.43;;;;;;;;;;10383630;22;20047;-87
2022/11/04 10:32:53;;;;;;;10.68;5.97;;;;;;;;;;10401278;22;20020;-87
2022/11/04 10:36:57;;;;;;;32.38;15.55;;;;;;;;;;10401244;22;20089;-89
2022/11/04 10:41:00;;;;;;;19.77;8.95;;;;;;;;;;10383630;22;20023;-88
2022/11/04 10:45:05;;;;;;;27.88;13.18;;;;;;;;;;10384262;22;20340;-91
2022/11/04 10:49:29;;;;;;;21.45;11.60;;;;;;;;;;10383861;22;20027;-90
2022/11/04 10:53:34;;;;;;;90.20;32.72;;;;;;;;;;10400784;22;20062;-88
2022/11/04 10:57:38;;;;;;;29.42;13.80;;;;;;;;;;10401031;22;20024;-89
2022/11/04 11:01:50;;;;;;;23.90;12.90;;;;;;;;;;10383887;22;20020;-90
2022/11/04 11:05:53;;;;;;;25.42;13.25;;;;;;;;;;10400411;22;20397;-89
2022/11/04 11:10:00;;;;;;;29.65;17.08;;;;;;;;;;10382969;22;20065;-89
2022/11/04 11:14:02;;;;;;;34.35;19.95;;;;;;;;;;10400372;22;20050;-89
2022/11/04 11:18:17;;;;;;;52.72;29.45;;;;;;;;;;10383939;22;20348;-89
2022/11/04 11:22:42;;;;;;;36.25;16.05;;;;;;;;;;10399800;22;20031;-87
2022/11/04 11:26:48;;;;;;;55.55;26.23;;;;;;;;;;10400275;22;20019;-88
2022/11/04 11:30:57;;;;;;;12.85;6.47;;;;;;;;;;10385725;22;20021;-87
2022/11/04 11:35:02;;;;;;;18.10;11.60;;;;;;;;;;10400064;22;20440;-88
2022/11/04 11:39:15;;;;;;;20.60;11.32;;;;;;;;;;10382725;22;20121;-89
2022/11/04 11:43:25;;;;;;;32.13;18.17;;;;;;;;;;10398167;22;20019;-87
2022/11/04 11:47:37;;;;;;;15.13;9.07;;;;;;;;;;10379349;22;20023;-88
2022/11/04 11:51:41;;;;;;;27.10;17.23;;;;;;;;;;10395701;22;20023;-88
2022/11/04 11:55:51;;;;;;;13.07;6.82;;;;;;;;;;10380221;22;20019;-90
2022/11/04 12:00:00;;;;;;;20.15;9.07;;;;;;;;;;10398085;22;20024;-87
2022/11/04 12:04:03;;;;;;;19.52;8.35;;;;;;;;;;10382228;22;20143;-88
2022/11/04 12:08:23;;;;;;;45.40;22.88;;;;;;;;;;10381238;22;20023;-89
2022/11/04 12:12:47;;;;;;;23.40;15.00;;;;;;;;;;10399121;22;20055;-88
2022/11/04 12:16:59;;;;;;;14.70;7.80;;;;;;;;;;10397483;22;20027;-90
2022/11/04 12:21:10;;;;;;;14.73;7.28;;;;;;;;;;10397529;22;20027;-88
2022/11/04 12:25:23;;;;;;;15.27;8.65;;;;;;;;;;10399188;22;20702;-86
2022/11/04 12:29:38;;;;;;;18.67;10.00;;;;;;;;;;10388657;22;20115;-87
2022/11/04 12:33:50;;;;;;;23.75;11.60;;;;;;;;;;10402652;22;20026;-88
2022/11/04 12:38:06;;;;;;;43.70;19.75;;;;;;;;;;10402939;22;20023;-89
2022/11/04 12:42:18;;;;;;;17.15;8.18;;;;;;;;;;10404117;22;20094;-86
2022/11/04 12:46:28;;;;;;;25.88;11.77;;;;;;;;;;10404256;22;20027;-88
2022/11/04 12:50:41;;;;;;;17.52;10.15;;;;;;;;;;10404549;22;20121;-88
2022/11/04 12:54:59;;;;;;;39.58;13.75;;;;;;;;;;10405373;22;20019;-86
2022/11/04 12:59:28;;;;;;;17.52;8.98;;;;;;;;;;10407744;22;20026;-86
2022/11/04 13:03:36;;;;;;;19.52;10.27;;;;;;;;;;10389394;22;20020;-89
2022/11/04 13:07:46;;;;;;;16.55;8.68;;;;;;;;;;10406369;22;20089;-87
2022/11/04 13:11:54;;;;;;;25.30;15.05;;;;;;;;;;10405505;22;20016;-88
2022/11/04 13:16:03;;;;;;;36.28;21.40;;;;;;;;;;10407228;22;20398;-87
2022/11/04 13:20:16;;;;;;;26.52;13.73;;;;;;;;;;10407347;22;20031;-87
2022/11/04 13:24:24;;;;;;;44.17;22.40;;;;;;;;;;10407508;22;20070;-86
2022/11/04 13:28:26;;;;;;;47.33;22.35;;;;;;;;;;10390564;22;20024;-88
2022/11/04 13:32:35;;;;;;;36.45;17.35;;;;;;;;;;10390284;22;20022;-86
2022/11/04 13:36:44;;;;;;;19.55;11.63;;;;;;;;;;10407358;22;20042;-88
2022/11/04 13:40:59;;;;;;;20.60;11.57;;;;;;;;;;10407329;22;20023;-86
2022/11/04 13:45:08;;;;;;;24.02;13.60;;;;;;;;;;10406734;22;20027;-87
2022/11/04 13:49:22;;;;;;;20.45;10.57;;;;;;;;;;10405513;22;20020;-86
2022/11/04 13:53:45;;;;;;;22.27;12.32;;;;;;;;;;10405253;22;20016;-89
2022/11/04 13:57:55;;;;;;;20.90;11.00;;;;;;;;;;10400594;22;20043;-89
2022/11/04 14:02:25;;;;;;;20.25;10.52;;;;;;;;;;10399483;22;20051;-88
2022/11/04 14:06:55;;;;;;;23.63;11.60;;;;;;;;;;10399066;22;20451;-88
2022/11/04 14:11:06;;;;;;;21.60;12.00;;;;;;;;;;10355599;22;20419;-86
2022/11/04 14:15:17;;;;;;;19.80;12.90;;;;;;;;;;10399664;22;20028;-89
2022/11/04 14:19:54;;;;;;;22.67;14.50;;;;;;;;;;10398303;22;20076;-88
2022/11/04 14:24:00;;;;;;;35.13;25.42;;;;;;;;;;10375002;22;20024;-86
2022/11/04 14:28:16;;;;;;;30.48;20.00;;;;;;;;;;10399209;22;20016;-88
2022/11/04 14:32:25;;;;;;;26.85;15.20;;;;;;;;;;10384122;22;20019;-89
2022/11/04 14:36:35;;;;;;;20.48;12.45;;;;;;;;;;10401500;22;20045;-88
2022/11/04 14:41:21;;;;;;;16.35;9.85;;;;;;;;;;10400255;22;20129;-89
2022/11/04 14:45:26;;;;;;;20.83;12.35;;;;;;;;;;10401444;22;20387;-89
2022/11/04 14:49:43;;;;;;;25.92;14.15;;;;;;;;;;10383973;22;20452;-88
2022/11/04 14:53:46;;;;;;;28.08;14.65;;;;;;;;;;10398295;22;20097;-89
2022/11/04 14:57:52;;;;;;;51.83;24.42;;;;;;;;;;10385703;22;20038;-89
2022/11/04 15:01:56;;;;;;;78.70;33.45;;;;;;;;;;10400280;22;20019;-89
2022/11/04 15:06:02;;;;;;;61.97;28.55;;;;;;;;;;10383595;22;20090;-89
2022/11/04 15:10:19;;;;;;;21.45;11.63;;;;;;;;;;10380844;22;20024;-88
2022/11/04 15:14:25;;;;;;;43.55;22.27;;;;;;;;;;10380541;22;20541;-88
2022/11/04 15:18:29;;;;;;;170.30;62.40;;;;;;;;;;10395950;22;20081;-88
2022/11/04 15:22:31;;;;;;;156.43;60.47;;;;;;;;;;10381327;22;20037;-88
2022/11/04 15:26:35;;;;;;;44.55;23.23;;;;;;;;;;10380852;22;20420;-90
2022/11/04 15:30:39;;;;;;;113.43;45.90;;;;;;;;;;10380789;22;20079;-87
2022/11/04 15:34:43;;;;;;;83.78;34.40;;;;;;;;;;10380407;22;20513;-89
2022/11/04 15:38:50;;;;;;;54.97;25.95;;;;;;;;;;10381390;22;20084;-88
2022/11/04 15:42:53;;;;;;;33.47;16.92;;;;;;;;;;10398933;22;20456;-88
2022/11/04 15:47:00;;;;;;;38.03;19.00;;;;;;;;;;10382588;22;20015;-87
2022/11/04 15:51:17;;;;;;;19.02;10.07;;;;;;;;;;10399257;22;20026;-86
2022/11/04 15:55:22;;;;;;;33.90;19.67;;;;;;;;;;10398486;22;20019;-86
2022/11/04 15:59:28;;;;;;;47.70;26.52;;;;;;;;;;10382351;22;20058;-88
2022/11/04 16:03:32;;;;;;;37.80;19.90;;;;;;;;;;10399627;22;20023;-88
2022/11/04 16:07:38;;;;;;;68.18;33.72;;;;;;;;;;10382320;22;20027;-87
2022/11/04 16:11:41;;;;;;;18.08;10.10;;;;;;;;;;10397965;22;20046;-87
2022/11/04 16:15:46;;;;;;;34.20;15.60;;;;;;;;;;10381184;22;20423;-90
2022/11/04 16:19:53;;;;;;;46.83;26.85;;;;;;;;;;10398497;22;20418;-87
2022/11/04 16:24:00;;;;;;;20.25;13.52;;;;;;;;;;10396034;22;20020;-87
2022/11/04 16:28:03;;;;;;;17.33;10.05;;;;;;;;;;10397359;22;20451;-86
2022/11/04 16:32:18;;;;;;;23.63;13.57;;;;;;;;;;10398802;22;20019;-87
2022/11/04 16:36:26;;;;;;;30.08;11.95;;;;;;;;;;10399385;22;20394;-88
2022/11/04 16:40:28;;;;;;;28.88;14.15;;;;;;;;;;10398144;22;20023;-88
2022/11/04 16:44:32;;;;;;;25.50;12.25;;;;;;;;;;10380863;22;20509;-86
2022/11/04 16:48:34;;;;;;;50.33;31.00;;;;;;;;;;10382166;22;20098;-88
2022/11/04 16:52:41;;;;;;;31.50;16.38;;;;;;;;;;10379514;22;20085;-89
2022/11/04 16:56:44;;;;;;;32.90;17.15;;;;;;;;;;10379485;22;20070;-87
2022/11/04 17:00:48;;;;;;;23.00;10.90;;;;;;;;;;10380852;22;20030;-87
2022/11/04 17:04:50;;;;;;;25.67;14.80;;;;;;;;;;10381510;22;20015;-86
2022/11/04 17:08:55;;;;;;;26.33;13.50;;;;;;;;;;10380563;22;20047;-88
2022/11/04 17:12:58;;;;;;;44.03;22.05;;;;;;;;;;10379632;22;20020;-87
2022/11/04 17:17:01;;;;;;;27.88;14.30;;;;;;;;;;10380197;22;20031;-86
2022/11/04 17:21:07;;;;;;;23.75;13.10;;;;;;;;;;10380060;22;20026;-87
2022/11/04 17:25:22;;;;;;;21.40;11.38;;;;;;;;;;10396435;22;20030;-86
2022/11/04 17:29:25;;;;;;;25.77;14.05;;;;;;;;;;10391701;22;20023;-88
2022/11/04 17:33:28;;;;;;;29.42;15.07;;;;;;;;;;10380070;22;20039;-88
2022/11/04 17:37:31;;;;;;;38.97;17.13;;;;;;;;;;10380228;22;20024;-86
2022/11/04 17:46:32;;;;;;;33.13;18.52;;;;;;;;;;10400431;22;20498;-87
2022/11/04 17:50:19;;;;;;;40.38;16.90;;;;;;;;;;10383641;22;20343;-88
2022/11/04 17:54:23;;;;;;;22.10;11.63;;;;;;;;;;10383756;22;20016;-86
2022/11/04 17:58:30;;;;;;;28.65;16.02;;;;;;;;;;10384688;22;20019;-86
2022/11/04 18:02:33;;;;;;;30.85;16.27;;;;;;;;;;10401804;22;20049;-86
2022/11/04 18:06:36;;;;;;;33.67;15.10;;;;;;;;;;10384134;22;20020;-87
2022/11/04 18:10:38;;;;;;;32.33;14.77;;;;;;;;;;10384867;22;20394;-86
2022/11/04 18:14:43;;;;;;;25.70;12.05;;;;;;;;;;10356664;22;20023;-85
2022/11/04 18:18:47;;;;;;;33.13;15.75;;;;;;;;;;10356105;22;20065;-88
2022/11/04 18:22:51;;;;;;;21.63;10.43;;;;;;;;;;10383730;22;20026;-87
2022/11/04 18:26:53;;;;;;;25.90;12.38;;;;;;;;;;10384621;22;20386;-87
2022/11/04 18:30:58;;;;;;;59.45;26.98;;;;;;;;;;10382532;22;20073;-88
2022/11/04 18:35:01;;;;;;;39.17;19.27;;;;;;;;;;10384735;22;20026;-88
2022/11/04 18:39:05;;;;;;;44.60;17.83;;;;;;;;;;10387701;22;20015;-88
2022/11/04 18:43:08;;;;;;;62.75;21.73;;;;;;;;;;10388287;22;20055;-86
2022/11/04 18:47:12;;;;;;;50.95;22.27;;;;;;;;;;10388107;22;20068;-86
2022/11/04 18:51:18;;;;;;;38.70;17.50;;;;;;;;;;10388757;22;20432;-88
2022/11/04 18:55:22;;;;;;;26.45;12.65;;;;;;;;;;10405598;22;20023;-88
2022/11/04 18:59:25;;;;;;;58.25;22.33;;;;;;;;;;10387842;22;20340;-88
2022/11/04 19:03:30;;;;;;;30.27;12.48;;;;;;;;;;10388558;22;20435;-88
2022/11/04 19:07:33;;;;;;;29.15;14.70;;;;;;;;;;10389037;22;20020;-86
2022/11/04 19:11:38;;;;;;;31.77;14.07;;;;;;;;;;10388896;22;20450;-85
2022/11/04 19:15:41;;;;;;;33.83;15.60;;;;;;;;;;10388654;22;20102;-86
2022/11/04 19:19:46;;;;;;;32.90;18.77;;;;;;;;;;10388656;22;20016;-86
2022/11/04 19:23:49;;;;;;;37.65;19.88;;;;;;;;;;10388323;22;20019;-87
2022/11/04 19:27:52;;;;;;;23.80;13.60;;;;;;;;;;10388212;22;20394;-88
2022/11/04 19:31:55;;;;;;;36.40;15.55;;;;;;;;;;10388495;22;20440;-88
2022/11/04 19:36:00;;;;;;;32.00;14.63;;;;;;;;;;10360508;22;20038;-87
2022/11/04 19:40:05;;;;;;;33.15;15.90;;;;;;;;;;10388055;22;20039;-86
2022/11/04 19:44:12;;;;;;;29.27;13.93;;;;;;;;;;10388565;22;20574;-86
2022/11/04 19:48:17;;;;;;;29.27;15.07;;;;;;;;;;10405152;22;20099;-87
2022/11/04 19:52:23;;;;;;;40.05;17.75;;;;;;;;;;10405231;22;20023;-86
2022/11/04 19:56:26;;;;;;;50.95;18.85;;;;;;;;;;10388020;22;20039;-88
2022/11/04 20:00:31;;;;;;;31.38;16.23;;;;;;;;;;10388034;22;20018;-88
2022/11/04 20:04:33;;;;;;;32.47;14.85;;;;;;;;;;10387749;22;20336;-86
2022/11/04 20:08:38;;;;;;;39.10;18.08;;;;;;;;;;10387709;22;20015;-89
2022/11/04 20:17:01;;;;;;;27.63;13.77;;;;;;;;;;10405756;22;20393;-85
2022/11/04 20:21:05;;;;;;;25.63;14.07;;;;;;;;;;10388281;22;20393;-85
2022/11/04 20:25:09;;;;;;;42.38;17.52;;;;;;;;;;10388542;22;20016;-85
2022/11/04 20:29:12;;;;;;;33.45;16.17;;;;;;;;;;10387925;22;20023;-87
2022/11/04 20:33:15;;;;;;;27.75;14.38;;;;;;;;;;10388500;22;20022;-85
2022/11/04 20:37:17;;;;;;;28.95;14.95;;;;;;;;;;10388344;22;20027;-86
2022/11/04 20:41:23;;;;;;;33.80;15.05;;;;;;;;;;10388190;22;20015;-89
2022/11/04 20:45:26;;;;;;;27.92;13.35;;;;;;;;;;10388370;22;20437;-89
2022/11/04 20:49:29;;;;;;;31.60;15.00;;;;;;;;;;10388012;22;20387;-88
2022/11/04 20:53:32;;;;;;;25.20;12.80;;;;;;;;;;10387813;22;20026;-87
2022/11/04 20:57:36;;;;;;;33.90;19.25;;;;;;;;;;10388116;22;20039;-86
2022/11/04 21:01:41;;;;;;;30.65;16.45;;;;;;;;;;10388093;22;20023;-88
2022/11/04 21:05:44;;;;;;;27.77;16.33;;;;;;;;;;10388275;22;20026;-88
2022/11/04 21:09:49;;;;;;;30.83;14.68;;;;;;;;;;10388150;22;20054;-88
2022/11/04 21:13:54;;;;;;;30.20;15.88;;;;;;;;;;10404732;22;20015;-88
2022/11/04 21:17:56;;;;;;;29.50;16.38;;;;;;;;;;10391253;22;20027;-87
2022/11/04 21:21:59;;;;;;;27.33;14.68;;;;;;;;;;10391223;22;20019;-88
2022/11/04 21:26:07;;;;;;;36.28;18.30;;;;;;;;;;10363891;22;20019;-86
2022/11/04 21:30:12;;;;;;;32.55;16.83;;;;;;;;;;10398100;22;20098;-87
2022/11/04 21:34:14;;;;;;;32.80;16.42;;;;;;;;;;10390859;22;20095;-87
2022/11/04 21:38:18;;;;;;;32.85;16.52;;;;;;;;;;10390790;22;20027;-86
2022/11/04 21:42:20;;;;;;;29.83;15.40;;;;;;;;;;10391151;22;20038;-86
2022/11/04 21:46:26;;;;;;;31.92;16.52;;;;;;;;;;10391022;22;20455;-87
2022/11/04 21:50:28;;;;;;;33.95;17.58;;;;;;;;;;10390581;22;20027;-87
2022/11/04 21:54:31;;;;;;;31.05;16.02;;;;;;;;;;10390716;22;20023;-87
2022/11/04 21:58:35;;;;;;;29.92;16.30;;;;;;;;;;10390752;22;20043;-86
2022/11/04 22:02:42;;;;;;;36.67;16.75;;;;;;;;;;10390452;22;20016;-88
2022/11/04 22:06:45;;;;;;;29.60;15.77;;;;;;;;;;10407338;22;20069;-85
2022/11/04 22:10:48;;;;;;;34.40;17.70;;;;;;;;;;10390626;22;20436;-85
2022/11/04 22:14:52;;;;;;;26.75;15.80;;;;;;;;;;10390616;22;20511;-88
2022/11/04 22:18:59;;;;;;;35.38;17.17;;;;;;;;;;10390288;22;20016;-87
2022/11/04 22:23:04;;;;;;;34.45;16.80;;;;;;;;;;10406579;22;20091;-87
2022/11/04 22:27:09;;;;;;;32.53;17.40;;;;;;;;;;10406895;22;20451;-86
2022/11/04 22:31:18;;;;;;;31.60;16.20;;;;;;;;;;10389940;22;20023;-88
2022/11/04 22:35:28;;;;;;;29.35;15.63;;;;;;;;;;10406972;22;20016;-88
2022/11/04 22:39:30;;;;;;;31.85;15.75;;;;;;;;;;10406899;22;20015;-89
2022/11/04 22:43:33;;;;;;;25.95;12.55;;;;;;;;;;10389989;22;20321;-89
2022/11/04 22:47:35;;;;;;;26.70;15.10;;;;;;;;;;10389823;22;20043;-88
2022/11/04 22:51:39;;;;;;;28.50;14.75;;;;;;;;;;10389897;22;20019;-88
2022/11/04 22:55:42;;;;;;;34.42;15.73;;;;;;;;;;10388156;22;20489;-87
2022/11/04 22:59:44;;;;;;;31.40;15.68;;;;;;;;;;10388951;22;20027;-88
2022/11/04 23:03:46;;;;;;;29.23;15.10;;;;;;;;;;10388495;22;20015;-89
2022/11/04 23:07:51;;;;;;;29.52;15.88;;;;;;;;;;10389252;22;20452;-89
2022/11/04 23:20:32;;;;;;;29.10;15.70;;;;;;;;;;10405951;22;20507;-89
2022/11/04 23:33:16;;;;;;;30.52;15.27;;;;;;;;;;10405205;22;20016;-91
2022/11/04 23:37:17;;;;;;;31.75;15.80;;;;;;;;;;10388750;22;20020;-89
